createdAt,value
2018-12-16T00:01:58.865Z,0.00
2018-12-16T00:04:29.880Z,0.00
2018-12-16T00:07:00.916Z,0.00
2018-12-16T00:09:30.610Z,-0.10
2018-12-16T00:11:59.680Z,-0.10
2018-12-16T00:14:30.669Z,-0.10
2018-12-16T00:16:59.849Z,-0.20
2018-12-16T00:19:29.109Z,-0.20
2018-12-16T00:21:58.205Z,-0.10
2018-12-16T00:24:27.304Z,-0.20
2018-12-16T00:27:08.783Z,-0.20
2018-12-16T00:29:37.864Z,-0.20
2018-12-16T00:32:07.037Z,-0.20
2018-12-16T00:34:36.303Z,-0.20
2018-12-16T00:37:05.458Z,-0.20
2018-12-16T00:39:34.570Z,-0.20
2018-12-16T00:42:03.763Z,-0.20
2018-12-16T00:44:33.054Z,-0.20
2018-12-16T00:47:02.140Z,-0.20
2018-12-16T00:49:31.257Z,-0.30
2018-12-16T00:52:00.545Z,-0.30
2018-12-16T00:54:29.667Z,-0.30
2018-12-16T00:56:58.705Z,-0.30
2018-12-16T00:59:27.768Z,-0.30
2018-12-16T01:01:58.721Z,-0.20
2018-12-16T01:04:27.893Z,-0.20
2018-12-16T01:06:57.019Z,-0.30
2018-12-16T01:09:26.097Z,-0.30
2018-12-16T01:11:55.149Z,-0.30
2018-12-16T01:14:24.261Z,-0.20
2018-12-16T01:16:53.384Z,-0.20
2018-12-16T01:19:22.372Z,-0.20
2018-12-16T01:21:51.558Z,-0.20
2018-12-16T01:24:20.602Z,-0.20
2018-12-16T01:26:49.640Z,-0.20
2018-12-16T01:29:18.742Z,-0.20
2018-12-16T01:31:47.806Z,-0.20
2018-12-16T01:34:16.881Z,-0.20
2018-12-16T01:36:45.953Z,-0.20
2018-12-16T01:39:15.108Z,-0.20
2018-12-16T01:41:44.133Z,-0.20
2018-12-16T01:44:13.297Z,-0.20
2018-12-16T01:46:42.341Z,-0.20
2018-12-16T01:49:11.485Z,-0.20
2018-12-16T01:51:40.608Z,-0.30
2018-12-16T01:54:09.649Z,-0.20
2018-12-16T01:56:38.690Z,-0.20
2018-12-16T01:59:07.757Z,-0.20
2018-12-16T02:01:38.857Z,-0.20
2018-12-16T02:04:07.848Z,-0.10
2018-12-16T02:06:37.071Z,-0.20
2018-12-16T02:09:07.109Z,-0.20
2018-12-16T02:11:38.278Z,-0.20
2018-12-16T02:14:07.263Z,-0.20
2018-12-16T02:16:36.457Z,-0.20
2018-12-16T02:19:05.478Z,-0.20
2018-12-16T02:21:34.591Z,-0.20
2018-12-16T02:24:04.236Z,-0.20
2018-12-16T02:26:33.233Z,-0.20
2018-12-16T02:29:02.381Z,-0.20
2018-12-16T02:31:31.476Z,-0.20
2018-12-16T02:34:00.793Z,-0.20
2018-12-16T02:36:30.017Z,-0.20
2018-12-16T02:38:59.178Z,-0.20
2018-12-16T02:41:28.262Z,-0.20
2018-12-16T02:43:57.313Z,-0.20
2018-12-16T02:46:26.390Z,-0.20
2018-12-16T02:48:55.430Z,-0.20
2018-12-16T02:51:24.518Z,-0.20
2018-12-16T02:53:53.543Z,-0.20
2018-12-16T02:56:22.530Z,-0.20
2018-12-16T02:58:51.585Z,-0.20
2018-12-16T03:01:20.819Z,-0.20
2018-12-16T03:03:49.813Z,-0.20
2018-12-16T03:06:18.937Z,-0.30
2018-12-16T03:08:47.994Z,-0.20
2018-12-16T03:11:17.015Z,-0.30
2018-12-16T03:13:46.239Z,-0.30
2018-12-16T03:16:15.342Z,-0.30
2018-12-16T03:18:44.392Z,-0.30
2018-12-16T03:21:13.534Z,-0.30
2018-12-16T03:23:42.557Z,-0.30
2018-12-16T03:26:11.626Z,-0.30
2018-12-16T03:28:40.666Z,-0.30
2018-12-16T03:31:09.872Z,-0.30
2018-12-16T03:33:38.897Z,-0.30
2018-12-16T03:36:08.137Z,-0.30
2018-12-16T03:38:37.262Z,-0.30
2018-12-16T03:41:06.340Z,-0.30
2018-12-16T03:43:35.344Z,-0.30
2018-12-16T03:46:04.538Z,-0.40
2018-12-16T03:48:33.616Z,-0.30
2018-12-16T03:51:02.634Z,-0.30
2018-12-16T03:53:31.637Z,-0.30
2018-12-16T03:56:00.640Z,-0.40
2018-12-16T03:58:29.633Z,-0.30
2018-12-16T04:00:58.639Z,-0.40
2018-12-16T04:03:27.677Z,-0.40
2018-12-16T04:05:56.742Z,-0.40
2018-12-16T04:08:25.877Z,-0.40
2018-12-16T04:10:56.025Z,-0.40
2018-12-16T04:13:25.149Z,-0.40
2018-12-16T04:15:56.175Z,-0.40
2018-12-16T04:18:25.267Z,-0.40
2018-12-16T04:20:54.326Z,-0.40
2018-12-16T04:23:27.395Z,-0.40
2018-12-16T04:25:54.453Z,-0.40
2018-12-16T04:28:23.763Z,-0.40
2018-12-16T04:30:52.800Z,-0.40
2018-12-16T04:33:21.833Z,-0.40
2018-12-16T04:35:50.926Z,-0.40
2018-12-16T04:38:20.031Z,-0.40
2018-12-16T04:40:49.129Z,-0.40
2018-12-16T04:43:18.169Z,-0.40
2018-12-16T04:45:47.237Z,-0.40
2018-12-16T04:48:16.275Z,-0.40
2018-12-16T04:50:45.422Z,-0.50
2018-12-16T04:53:14.493Z,-0.40
2018-12-16T04:55:43.526Z,-0.50
2018-12-16T04:58:12.608Z,-0.40
2018-12-16T05:00:41.697Z,-0.40
2018-12-16T05:03:10.930Z,-0.40
2018-12-16T05:05:40.137Z,-0.40
2018-12-16T05:08:09.409Z,-0.40
2018-12-16T05:10:38.453Z,-0.40
2018-12-16T05:13:07.495Z,-0.50
2018-12-16T05:15:36.692Z,-0.50
2018-12-16T05:18:05.769Z,-0.50
2018-12-16T05:20:34.812Z,-0.40
2018-12-16T05:23:03.958Z,-0.40
2018-12-16T05:25:35.050Z,-0.40
2018-12-16T05:28:04.195Z,-0.40
2018-12-16T05:30:33.322Z,-0.40
2018-12-16T05:33:02.325Z,-0.40
2018-12-16T05:35:31.406Z,-0.50
2018-12-16T05:38:00.636Z,-0.50
2018-12-16T05:40:29.883Z,-0.40
2018-12-16T05:42:58.989Z,-0.50
2018-12-16T05:45:28.114Z,-0.50
2018-12-16T05:47:57.135Z,-0.50
2018-12-16T05:50:26.286Z,-0.50
2018-12-16T05:52:55.353Z,-0.50
2018-12-16T05:55:24.449Z,-0.50
2018-12-16T05:57:53.434Z,-0.50
2018-12-16T06:00:22.530Z,-0.40
2018-12-16T06:02:51.532Z,-0.50
2018-12-16T06:05:20.678Z,-0.50
2018-12-16T06:07:49.777Z,-0.50
2018-12-16T06:10:18.945Z,-0.50
2018-12-16T06:12:49.175Z,-0.50
2018-12-16T06:15:18.261Z,-0.40
2018-12-16T06:17:47.268Z,-0.40
2018-12-16T06:20:16.322Z,-0.40
2018-12-16T06:22:45.365Z,-0.50
2018-12-16T06:25:14.435Z,-0.40
2018-12-16T06:27:43.566Z,-0.50
2018-12-16T06:30:13.045Z,-0.50
2018-12-16T06:32:42.137Z,-0.50
2018-12-16T06:35:11.246Z,-0.50
2018-12-16T06:37:40.533Z,-0.50
2018-12-16T06:40:09.556Z,-0.50
2018-12-16T06:42:38.845Z,-0.50
2018-12-16T06:45:07.914Z,-0.40
2018-12-16T06:47:37.170Z,-0.40
2018-12-16T06:50:07.002Z,-0.40
2018-12-16T06:52:36.078Z,-0.40
2018-12-16T06:55:05.655Z,-0.40
2018-12-16T06:57:34.769Z,-0.50
2018-12-16T07:00:04.326Z,-0.40
2018-12-16T07:02:33.387Z,-0.50
2018-12-16T07:05:02.489Z,-0.50
2018-12-16T07:07:31.698Z,-0.50
2018-12-16T07:10:00.739Z,-0.50
2018-12-16T07:12:29.750Z,-0.50
2018-12-16T07:14:58.883Z,-0.50
2018-12-16T07:17:28.076Z,-0.50
2018-12-16T07:19:57.251Z,-0.50
2018-12-16T07:22:26.279Z,-0.50
2018-12-16T07:24:55.334Z,-0.40
2018-12-16T07:27:24.394Z,-0.40
2018-12-16T07:29:53.436Z,-0.40
2018-12-16T07:32:23.777Z,-0.40
2018-12-16T07:34:53.045Z,-0.40
2018-12-16T07:37:22.134Z,-0.40
2018-12-16T07:39:51.240Z,-0.30
2018-12-16T07:42:20.348Z,-0.40
2018-12-16T07:44:49.377Z,-0.30
2018-12-16T07:47:18.704Z,-0.30
2018-12-16T07:49:47.960Z,-0.30
2018-12-16T07:52:17.024Z,-0.30
2018-12-16T07:54:46.120Z,-0.30
2018-12-16T07:57:15.221Z,-0.30
2018-12-16T07:59:44.354Z,-0.30
2018-12-16T08:02:13.460Z,-0.30
2018-12-16T08:04:42.457Z,-0.30
2018-12-16T08:07:11.437Z,-0.30
2018-12-16T08:09:40.494Z,-0.30
2018-12-16T08:12:09.563Z,-0.30
2018-12-16T08:14:38.661Z,-0.40
2018-12-16T08:17:07.807Z,-0.30
2018-12-16T08:19:36.830Z,-0.30
2018-12-16T08:22:05.824Z,-0.30
2018-12-16T08:24:34.841Z,-0.20
2018-12-16T08:27:03.981Z,-0.20
2018-12-16T08:29:33.328Z,-0.20
2018-12-16T08:32:02.445Z,-0.20
2018-12-16T08:34:31.631Z,-0.20
2018-12-16T08:37:00.689Z,-0.20
2018-12-16T08:39:29.909Z,-0.20
2018-12-16T08:41:58.921Z,-0.20
2018-12-16T08:44:28.081Z,-0.20
2018-12-16T08:46:57.155Z,-0.20
2018-12-16T08:49:26.188Z,-0.10
2018-12-16T08:51:55.469Z,-0.20
2018-12-16T08:54:30.095Z,-0.20
2018-12-16T08:56:55.496Z,-0.10
2018-12-16T08:59:24.606Z,-0.10
2018-12-16T09:01:53.661Z,-0.10
2018-12-16T09:04:23.109Z,-0.10
2018-12-16T09:06:52.141Z,-0.10
2018-12-16T09:09:21.682Z,-0.10
2018-12-16T09:11:50.694Z,-0.10
2018-12-16T09:14:19.906Z,-0.10
2018-12-16T09:16:48.981Z,0.00
2018-12-16T09:19:17.975Z,-0.10
2018-12-16T09:21:47.113Z,-0.10
2018-12-16T09:24:16.450Z,-0.10
2018-12-16T09:26:45.466Z,-0.10
2018-12-16T09:29:14.622Z,-0.10
2018-12-16T09:31:43.803Z,-0.10
2018-12-16T09:34:12.845Z,-0.20
2018-12-16T09:36:41.839Z,-0.10
2018-12-16T09:39:10.990Z,-0.10
2018-12-16T09:41:40.370Z,-0.10
2018-12-16T09:44:09.448Z,-0.10
2018-12-16T09:46:38.597Z,-0.10
2018-12-16T09:49:07.684Z,0.00
2018-12-16T09:51:36.680Z,0.00
2018-12-16T09:54:06.028Z,0.00
2018-12-16T09:56:35.050Z,0.00
2018-12-16T09:59:04.246Z,0.00
2018-12-16T10:01:33.430Z,0.00
2018-12-16T10:04:02.585Z,0.00
2018-12-16T10:06:31.577Z,0.00
2018-12-16T10:09:00.617Z,0.00
2018-12-16T10:11:29.969Z,0.00
2018-12-16T10:13:59.322Z,0.00
2018-12-16T10:16:28.444Z,0.00
2018-12-16T10:18:57.479Z,0.00
2018-12-16T10:21:26.698Z,0.00
2018-12-16T10:23:55.921Z,0.00
2018-12-16T10:26:25.246Z,0.00
2018-12-16T10:28:54.305Z,0.00
2018-12-16T10:31:23.441Z,0.00
2018-12-16T10:33:52.512Z,0.00
2018-12-16T10:36:21.745Z,0.00
2018-12-16T10:38:50.770Z,0.00
2018-12-16T10:41:19.837Z,0.00
2018-12-16T10:43:48.961Z,0.00
2018-12-16T10:46:18.012Z,-0.10
2018-12-16T10:48:47.079Z,0.00
2018-12-16T10:51:16.213Z,0.00
2018-12-16T10:53:45.223Z,0.00
2018-12-16T10:56:14.216Z,0.00
2018-12-16T10:58:43.365Z,0.00
2018-12-16T11:01:31.918Z,0.00
2018-12-16T11:04:00.956Z,0.00
2018-12-16T11:06:30.050Z,0.00
2018-12-16T11:08:59.297Z,0.00
2018-12-16T11:11:28.352Z,0.00
2018-12-16T11:13:57.462Z,0.00
2018-12-16T11:16:26.577Z,-0.10
2018-12-16T11:18:55.704Z,-0.10
2018-12-16T11:21:24.697Z,0.00
2018-12-16T11:23:54.043Z,-0.10
2018-12-16T11:26:23.349Z,-0.10
2018-12-16T11:28:52.512Z,-0.10
2018-12-16T11:31:21.740Z,-0.10
2018-12-16T11:33:50.832Z,0.00
2018-12-16T11:36:19.956Z,0.00
2018-12-16T11:38:49.188Z,0.00
2018-12-16T11:41:18.372Z,0.00
2018-12-16T11:43:47.521Z,0.00
2018-12-16T11:46:16.600Z,0.00
2018-12-16T11:48:45.708Z,0.00
2018-12-16T11:51:14.962Z,0.00
2018-12-16T11:53:44.206Z,-0.10
2018-12-16T11:56:13.965Z,0.00
2018-12-16T11:58:43.651Z,0.00
2018-12-16T12:01:12.754Z,0.10
2018-12-16T12:03:41.797Z,0.00
2018-12-16T12:06:11.157Z,0.00
2018-12-16T12:08:41.101Z,0.10
2018-12-16T12:11:10.269Z,0.00
2018-12-16T12:13:39.433Z,0.10
2018-12-16T12:16:08.601Z,0.10
2018-12-16T12:18:37.765Z,0.00
2018-12-16T12:21:06.907Z,0.10
2018-12-16T12:23:36.085Z,0.10
2018-12-16T12:26:05.405Z,0.10
2018-12-16T12:28:34.713Z,0.10
2018-12-16T12:31:05.029Z,0.00
2018-12-16T12:33:34.074Z,0.00
2018-12-16T12:36:03.190Z,0.00
2018-12-16T12:38:32.531Z,0.00
2018-12-16T12:41:01.662Z,0.00
2018-12-16T12:43:30.646Z,0.00
2018-12-16T12:45:59.636Z,0.00
2018-12-16T12:48:30.423Z,0.10
2018-12-16T12:50:59.641Z,0.10
2018-12-16T12:53:28.833Z,0.00
2018-12-16T12:55:57.842Z,0.10
2018-12-16T12:58:26.914Z,0.00
2018-12-16T13:00:55.906Z,0.00
2018-12-16T13:03:25.474Z,0.00
2018-12-16T13:05:54.696Z,0.00
2018-12-16T13:08:23.829Z,0.00
2018-12-16T13:10:52.912Z,0.00
2018-12-16T13:13:22.251Z,0.00
2018-12-16T13:15:51.879Z,0.10
2018-12-16T13:18:21.138Z,0.10
2018-12-16T13:20:50.211Z,0.10
2018-12-16T13:23:19.315Z,0.10
2018-12-16T13:25:59.653Z,0.10
2018-12-16T13:28:29.024Z,0.10
2018-12-16T13:30:58.125Z,0.10
2018-12-16T13:33:27.142Z,0.10
2018-12-16T13:35:56.165Z,0.10
2018-12-16T13:38:25.222Z,0.10
2018-12-16T13:40:54.306Z,0.10
2018-12-16T13:43:23.635Z,0.10
2018-12-16T13:45:52.741Z,0.10
2018-12-16T13:48:21.817Z,0.10
2018-12-16T13:50:50.957Z,0.10
2018-12-16T13:53:20.211Z,0.10
2018-12-16T13:55:49.775Z,0.10
2018-12-16T13:58:19.094Z,0.10
2018-12-16T14:00:48.154Z,0.10
2018-12-16T14:03:17.461Z,0.20
2018-12-16T14:05:47.038Z,0.10
2018-12-16T14:08:16.250Z,0.10
2018-12-16T14:10:45.429Z,0.10
2018-12-16T14:13:14.556Z,0.10
2018-12-16T14:15:43.817Z,0.10
2018-12-16T14:18:13.030Z,0.00
2018-12-16T14:20:42.051Z,0.10
2018-12-16T14:23:11.211Z,0.00
2018-12-16T14:25:40.214Z,0.00
2018-12-16T14:28:09.336Z,0.00
2018-12-16T14:30:38.632Z,0.00
2018-12-16T14:33:08.616Z,0.00
2018-12-16T14:35:37.671Z,0.00
2018-12-16T14:38:07.363Z,0.00
2018-12-16T14:40:36.444Z,0.00
2018-12-16T14:43:05.601Z,0.00
2018-12-16T14:45:34.787Z,0.00
2018-12-16T14:48:03.852Z,0.00
2018-12-16T14:50:33.835Z,0.00
2018-12-16T14:53:02.837Z,0.00
2018-12-16T14:55:32.112Z,0.00
2018-12-16T14:58:01.163Z,0.00
2018-12-16T15:00:30.203Z,0.00
2018-12-16T15:02:59.215Z,0.00
2018-12-16T15:05:28.397Z,0.00
2018-12-16T15:07:58.501Z,0.00
2018-12-16T15:10:27.555Z,0.00
2018-12-16T15:12:58.069Z,-0.10
2018-12-16T15:15:28.193Z,0.00
2018-12-16T15:17:57.344Z,0.00
2018-12-16T15:20:26.454Z,-0.10
2018-12-16T15:22:55.581Z,-0.10
2018-12-16T15:25:24.676Z,0.00
2018-12-16T15:27:53.771Z,-0.10
2018-12-16T15:30:22.897Z,0.00
2018-12-16T15:32:52.024Z,0.00
2018-12-16T15:35:21.125Z,0.00
2018-12-16T15:37:50.415Z,0.00
2018-12-16T15:40:19.758Z,-0.10
2018-12-16T15:42:48.953Z,0.00
2018-12-16T15:45:18.086Z,0.00
2018-12-16T15:47:47.213Z,0.00
2018-12-16T15:50:16.335Z,-0.10
2018-12-16T15:52:45.387Z,-0.10
2018-12-16T15:55:14.525Z,-0.10
2018-12-16T15:57:43.618Z,-0.10
2018-12-16T16:00:13.169Z,0.00
2018-12-16T16:02:42.637Z,0.00
2018-12-16T16:05:11.666Z,-0.10
2018-12-16T16:07:40.765Z,0.00
2018-12-16T16:10:10.179Z,0.00
2018-12-16T16:12:39.327Z,0.00
2018-12-16T16:15:08.788Z,0.00
2018-12-16T16:17:38.236Z,0.00
2018-12-16T16:20:07.579Z,0.00
2018-12-16T16:22:36.796Z,0.00
2018-12-16T16:25:06.641Z,0.10
2018-12-16T16:27:35.765Z,0.00
2018-12-16T16:30:06.107Z,0.00
2018-12-16T16:32:35.271Z,0.00
2018-12-16T16:35:04.533Z,0.00
2018-12-16T16:37:33.623Z,0.00
2018-12-16T16:40:03.064Z,0.00
2018-12-16T16:42:32.279Z,0.00
2018-12-16T16:45:01.320Z,0.00
2018-12-16T16:47:31.816Z,0.00
2018-12-16T16:50:00.928Z,0.00
2018-12-16T16:52:30.069Z,0.00
2018-12-16T16:55:00.078Z,0.00
2018-12-16T16:57:29.098Z,0.00
2018-12-16T16:59:58.134Z,0.00
2018-12-16T17:02:27.168Z,0.00
2018-12-16T17:04:56.169Z,0.00
2018-12-16T17:07:25.358Z,0.00
2018-12-16T17:09:54.591Z,0.00
2018-12-16T17:12:24.164Z,0.00
2018-12-16T17:14:54.283Z,0.00
2018-12-16T17:17:23.490Z,0.00
2018-12-16T17:19:52.592Z,0.00
2018-12-16T17:22:21.748Z,0.00
2018-12-16T17:24:50.800Z,0.00
2018-12-16T17:27:19.939Z,0.00
2018-12-16T17:29:49.334Z,0.00
2018-12-16T17:32:18.421Z,0.00
2018-12-16T17:34:47.476Z,0.00
2018-12-16T17:37:16.642Z,0.00
2018-12-16T17:39:45.869Z,0.00
2018-12-16T17:42:15.021Z,0.00
2018-12-16T17:44:44.086Z,0.00
2018-12-16T17:47:13.240Z,0.00
2018-12-16T17:49:42.365Z,0.00
2018-12-16T17:52:11.587Z,0.00
2018-12-16T17:54:41.821Z,0.00
2018-12-16T17:57:11.081Z,0.00
2018-12-16T17:59:40.525Z,0.00
2018-12-16T18:02:09.591Z,-0.10
2018-12-16T18:04:38.725Z,0.00
2018-12-16T18:07:07.761Z,0.00
2018-12-16T18:09:37.012Z,-0.10
2018-12-16T18:12:06.151Z,0.00
2018-12-16T18:14:35.333Z,0.00
2018-12-16T18:17:05.391Z,0.00
2018-12-16T18:19:34.560Z,0.00
2018-12-16T18:22:03.761Z,0.00
2018-12-16T18:24:32.734Z,0.00
2018-12-16T18:27:01.855Z,0.00
2018-12-16T18:29:31.045Z,0.00
2018-12-16T18:32:00.226Z,0.00
2018-12-16T18:34:29.385Z,0.00
2018-12-16T18:36:58.560Z,-0.10
2018-12-16T18:39:27.620Z,-0.10
2018-12-16T18:41:56.919Z,-0.10
2018-12-16T18:44:26.022Z,-0.10
2018-12-16T18:46:55.359Z,-0.10
2018-12-16T18:49:24.417Z,-0.10
2018-12-16T18:51:53.441Z,-0.10
2018-12-16T18:54:22.594Z,-0.10
2018-12-16T18:56:51.756Z,-0.10
2018-12-16T18:59:20.804Z,-0.10
2018-12-16T19:01:49.816Z,-0.10
2018-12-16T19:04:21.036Z,-0.10
2018-12-16T19:06:50.084Z,-0.10
2018-12-16T19:09:19.187Z,-0.10
2018-12-16T19:11:48.213Z,-0.10
2018-12-16T19:14:17.566Z,-0.20
2018-12-16T19:16:46.612Z,-0.10
2018-12-16T19:19:16.018Z,-0.10
2018-12-16T19:21:45.244Z,-0.10
2018-12-16T19:24:14.280Z,-0.10
2018-12-16T19:26:43.385Z,-0.20
2018-12-16T19:29:13.385Z,-0.20
2018-12-16T19:31:42.532Z,-0.10
2018-12-16T19:34:11.745Z,-0.20
2018-12-16T19:36:41.044Z,-0.20
2018-12-16T19:39:10.206Z,-0.20
2018-12-16T19:41:41.291Z,-0.20
2018-12-16T19:44:10.460Z,-0.20
2018-12-16T19:46:39.704Z,-0.20
2018-12-16T19:49:08.950Z,-0.10
2018-12-16T19:51:38.090Z,-0.20
2018-12-16T19:54:07.099Z,-0.20
2018-12-16T19:56:36.466Z,-0.20
2018-12-16T19:59:05.841Z,-0.20
2018-12-16T20:01:35.074Z,-0.20
2018-12-16T20:04:09.325Z,-0.20
2018-12-16T20:06:44.662Z,-0.20
2018-12-16T20:09:13.835Z,-0.10
2018-12-16T20:11:43.173Z,-0.20
2018-12-16T20:14:12.215Z,-0.20
2018-12-16T20:16:41.458Z,-0.20
2018-12-16T20:19:10.701Z,-0.20
2018-12-16T20:21:39.772Z,-0.20
2018-12-16T20:24:08.971Z,-0.20
2018-12-16T20:26:38.053Z,-0.20
2018-12-16T20:29:07.216Z,-0.20
2018-12-16T20:31:36.394Z,-0.20
2018-12-16T20:34:05.545Z,-0.20
2018-12-16T20:36:34.596Z,-0.20
2018-12-16T20:39:04.638Z,-0.20
2018-12-16T20:41:35.813Z,-0.20
2018-12-16T20:44:04.873Z,-0.20
2018-12-16T20:46:34.048Z,-0.20
2018-12-16T20:49:03.110Z,-0.20
2018-12-16T20:51:32.174Z,-0.20
2018-12-16T20:54:01.333Z,-0.20
2018-12-16T20:56:31.034Z,-0.20
2018-12-16T20:59:00.082Z,-0.20
2018-12-16T21:01:29.258Z,-0.20
2018-12-16T21:03:58.301Z,-0.20
2018-12-16T21:06:28.445Z,-0.20
2018-12-16T21:08:57.561Z,-0.20
2018-12-16T21:11:32.043Z,-0.20
2018-12-16T21:14:06.405Z,-0.20
2018-12-16T21:16:40.923Z,-0.20
2018-12-16T21:19:10.146Z,-0.20
2018-12-16T21:21:39.156Z,-0.20
2018-12-16T21:24:08.275Z,-0.30
2018-12-16T21:26:37.271Z,-0.30
2018-12-16T21:29:06.516Z,-0.30
2018-12-16T21:31:35.671Z,-0.30
2018-12-16T21:34:05.429Z,-0.30
2018-12-16T21:36:34.607Z,-0.30
2018-12-16T21:39:04.946Z,-0.30
2018-12-16T21:41:36.092Z,-0.30
2018-12-16T21:44:05.141Z,-0.30
2018-12-16T21:46:34.383Z,-0.40
2018-12-16T21:49:03.582Z,-0.30
2018-12-16T21:51:32.754Z,-0.30
2018-12-16T21:54:01.919Z,-0.30
2018-12-16T21:56:32.109Z,-0.30
2018-12-16T21:59:02.550Z,-0.30
2018-12-16T22:01:33.279Z,-0.30
2018-12-16T22:04:02.364Z,-0.40
2018-12-16T22:06:31.609Z,-0.40
2018-12-16T22:09:00.858Z,-0.30
2018-12-16T22:11:31.984Z,-0.40
2018-12-16T22:14:01.053Z,-0.40
2018-12-16T22:16:30.397Z,-0.40
2018-12-16T22:18:59.697Z,-0.40
2018-12-16T22:21:28.792Z,-0.40
2018-12-16T22:23:57.845Z,-0.30
2018-12-16T22:26:26.844Z,-0.30
2018-12-16T22:28:56.152Z,-0.30
2018-12-16T22:31:25.248Z,-0.30
2018-12-16T22:33:54.803Z,-0.30
2018-12-16T22:36:23.830Z,-0.30
2018-12-16T22:38:52.877Z,-0.30
2018-12-16T22:41:21.989Z,-0.30
2018-12-16T22:43:51.613Z,-0.40
2018-12-16T22:46:21.177Z,-0.40
2018-12-16T22:48:50.428Z,-0.40
2018-12-16T22:51:19.638Z,-0.40
2018-12-16T22:53:48.731Z,-0.40
2018-12-16T22:56:17.774Z,-0.40
2018-12-16T22:58:46.871Z,-0.40
2018-12-16T23:01:17.717Z,-0.40
2018-12-16T23:03:48.340Z,-0.40
2018-12-16T23:06:17.562Z,-0.40
2018-12-16T23:08:46.681Z,-0.40
2018-12-16T23:11:16.054Z,-0.40
2018-12-16T23:13:45.410Z,-0.40
2018-12-16T23:16:14.504Z,-0.40
2018-12-16T23:18:43.886Z,-0.40
2018-12-16T23:21:13.101Z,-0.40
2018-12-16T23:23:42.221Z,-0.40
2018-12-16T23:26:11.337Z,-0.50
2018-12-16T23:28:40.773Z,-0.50
2018-12-16T23:31:09.974Z,-0.50
2018-12-16T23:33:39.048Z,-0.50
2018-12-16T23:36:08.135Z,-0.50
2018-12-16T23:38:37.207Z,-0.50
2018-12-16T23:41:06.324Z,-0.40
2018-12-16T23:43:35.344Z,-0.50
2018-12-16T23:46:04.697Z,-0.50
2018-12-16T23:48:33.792Z,-0.50
2018-12-16T23:51:03.038Z,-0.50
2018-12-16T23:53:33.972Z,-0.50
2018-12-16T23:56:03.159Z,-0.50
2018-12-16T23:58:32.170Z,-0.60
